createdAt,value
2023-02-11T00:01:45.687Z,63.50
2023-02-11T00:04:16.070Z,62.90
2023-02-11T00:06:46.400Z,62.80
2023-02-11T00:09:16.761Z,62.90
2023-02-11T00:11:47.080Z,62.70
2023-02-11T00:14:17.537Z,62.60
2023-02-11T00:16:47.814Z,62.50
2023-02-11T00:19:18.181Z,62.20
2023-02-11T00:21:48.446Z,61.70
2023-02-11T00:24:18.810Z,61.40
2023-02-11T00:26:49.132Z,61.10
2023-02-11T00:29:19.572Z,61.40
2023-02-11T00:31:50.299Z,61.40
2023-02-11T00:34:20.660Z,61.50
2023-02-11T00:36:51.229Z,61.60
2023-02-11T00:39:21.475Z,61.50
2023-02-11T00:41:51.775Z,61.50
2023-02-11T00:44:22.074Z,61.30
2023-02-11T00:46:52.391Z,61.40
2023-02-11T00:49:23.072Z,61.40
2023-02-11T00:51:53.439Z,61.50
2023-02-11T00:54:23.818Z,61.30
2023-02-11T00:56:54.187Z,61.40
2023-02-11T00:59:24.470Z,61.60
2023-02-11T01:01:55.137Z,61.80
2023-02-11T01:04:25.678Z,61.70
2023-02-11T01:06:56.044Z,61.50
2023-02-11T01:09:26.304Z,61.10
2023-02-11T01:11:56.545Z,60.90
2023-02-11T01:14:26.858Z,60.70
2023-02-11T01:16:57.056Z,60.70
2023-02-11T01:19:27.296Z,60.90
2023-02-11T01:21:57.519Z,61.00
2023-02-11T01:24:27.861Z,60.90
2023-02-11T01:26:58.342Z,60.40
2023-02-11T01:29:28.767Z,60.00
2023-02-11T01:31:59.057Z,59.90
2023-02-11T01:34:29.416Z,59.70
2023-02-11T01:37:02.970Z,59.70
2023-02-11T01:39:36.441Z,59.90
2023-02-11T01:42:07.046Z,60.00
2023-02-11T01:44:40.849Z,60.00
2023-02-11T01:47:11.613Z,59.60
2023-02-11T01:49:47.827Z,59.60
2023-02-11T01:52:30.506Z,59.30
2023-02-11T01:55:22.359Z,59.00
2023-02-11T01:57:58.662Z,59.00
2023-02-11T02:00:39.975Z,59.10
2023-02-11T02:03:21.790Z,58.80
2023-02-11T02:06:04.076Z,58.70
2023-02-11T02:09:10.538Z,58.10
2023-02-11T02:11:40.818Z,57.20
2023-02-11T02:14:11.044Z,58.10
2023-02-11T02:16:41.661Z,57.90
2023-02-11T02:19:29.829Z,57.80
2023-02-11T02:22:08.957Z,56.40
2023-02-11T02:25:03.479Z,55.20
2023-02-11T02:28:03.554Z,55.80
2023-02-11T02:31:01.256Z,54.90
2023-02-11T02:33:48.297Z,55.60
2023-02-11T02:36:25.645Z,55.10
2023-02-11T02:39:06.044Z,55.30
2023-02-11T02:41:38.469Z,54.90
2023-02-11T02:44:10.440Z,55.10
2023-02-11T02:46:40.772Z,54.80
2023-02-11T02:49:16.622Z,54.70
2023-02-11T02:52:14.695Z,54.50
2023-02-11T02:55:03.326Z,54.00
2023-02-11T02:58:05.701Z,54.90
2023-02-11T03:00:41.671Z,54.60
2023-02-11T03:03:14.973Z,54.60
2023-02-11T03:05:52.226Z,54.80
2023-02-11T03:08:41.426Z,54.70
2023-02-11T03:11:14.001Z,54.50
2023-02-11T03:13:46.220Z,54.40
2023-02-11T03:16:27.737Z,54.00
2023-02-11T03:19:13.718Z,53.50
2023-02-11T03:21:46.366Z,52.90
2023-02-11T03:24:33.935Z,53.30
2023-02-11T03:27:25.717Z,53.60
2023-02-11T03:29:58.750Z,53.50
2023-02-11T03:32:37.682Z,53.00
2023-02-11T03:35:22.875Z,53.10
2023-02-11T03:38:06.730Z,52.80
2023-02-11T03:40:41.298Z,53.10
2023-02-11T03:43:22.806Z,53.50
2023-02-11T03:45:55.350Z,53.60
2023-02-11T03:48:30.152Z,53.70
2023-02-11T03:51:03.622Z,54.10
2023-02-11T03:53:33.973Z,54.00
2023-02-11T03:56:08.586Z,54.30
2023-02-11T03:58:38.835Z,54.50
2023-02-11T04:01:11.640Z,54.70
2023-02-11T04:03:41.973Z,54.70
2023-02-11T04:06:12.504Z,54.70
2023-02-11T04:08:42.903Z,54.60
2023-02-11T04:11:13.200Z,54.60
2023-02-11T04:13:43.484Z,54.60
2023-02-11T04:16:14.149Z,54.30
2023-02-11T04:18:44.410Z,54.10
2023-02-11T04:21:15.071Z,54.10
2023-02-11T04:23:45.446Z,54.40
2023-02-11T04:26:15.889Z,54.20
2023-02-11T04:28:46.141Z,53.40
2023-02-11T04:31:16.464Z,53.20
2023-02-11T04:33:46.743Z,53.40
2023-02-11T04:36:17.171Z,53.10
2023-02-11T04:38:47.445Z,52.60
2023-02-11T04:41:17.909Z,53.00
2023-02-11T04:43:48.129Z,52.30
2023-02-11T04:46:18.411Z,52.70
2023-02-11T04:48:48.666Z,52.90
2023-02-11T04:51:19.345Z,52.80
2023-02-11T04:53:49.663Z,52.70
2023-02-11T04:56:20.194Z,52.80
2023-02-11T04:58:50.451Z,52.60
2023-02-11T05:01:20.965Z,52.50
2023-02-11T05:03:51.470Z,52.10
2023-02-11T05:06:22.823Z,51.40
2023-02-11T05:08:53.245Z,51.00
2023-02-11T05:11:25.829Z,50.80
2023-02-11T05:13:56.329Z,50.90
2023-02-11T05:16:26.873Z,50.50
2023-02-11T05:18:58.414Z,50.00
2023-02-11T05:21:29.175Z,49.20
2023-02-11T05:24:00.648Z,49.30
2023-02-11T05:26:31.131Z,48.60
2023-02-11T05:29:01.371Z,48.70
2023-02-11T05:31:31.654Z,48.90
2023-02-11T05:34:02.019Z,48.90
2023-02-11T05:36:33.454Z,48.60
2023-02-11T05:39:03.905Z,48.90
2023-02-11T05:41:34.106Z,48.70
2023-02-11T05:44:04.314Z,48.50
2023-02-11T05:46:34.601Z,48.10
2023-02-11T05:49:05.021Z,47.80
2023-02-11T05:51:35.513Z,48.00
2023-02-11T05:54:05.833Z,47.80
2023-02-11T05:56:36.235Z,47.50
2023-02-11T05:59:06.515Z,48.20
2023-02-11T06:01:36.908Z,47.90
2023-02-11T06:04:07.148Z,46.90
2023-02-11T06:06:37.529Z,46.60
2023-02-11T06:09:07.869Z,46.60
2023-02-11T06:11:38.738Z,45.90
2023-02-11T06:14:08.999Z,46.00
2023-02-11T06:16:39.672Z,45.70
2023-02-11T06:19:10.034Z,46.50
2023-02-11T06:21:44.166Z,46.30
2023-02-11T06:24:17.412Z,46.00
2023-02-11T06:26:49.714Z,47.20
2023-02-11T06:29:19.969Z,46.60
2023-02-11T06:31:50.366Z,47.00
2023-02-11T06:34:20.682Z,46.70
2023-02-11T06:36:51.110Z,47.00
2023-02-11T06:39:21.375Z,47.00
2023-02-11T06:41:51.542Z,47.40
2023-02-11T06:44:21.854Z,47.50
2023-02-11T06:46:52.164Z,48.00
2023-02-11T06:49:22.471Z,47.90
2023-02-11T06:51:52.676Z,47.80
2023-02-11T06:54:23.080Z,47.20
2023-02-11T06:56:53.350Z,47.80
2023-02-11T06:59:23.739Z,47.30
2023-02-11T07:01:53.994Z,47.90
2023-02-11T07:04:24.508Z,46.80
2023-02-11T07:06:54.692Z,46.50
2023-02-11T07:09:24.931Z,46.60
2023-02-11T07:11:55.324Z,46.60
2023-02-11T07:14:25.651Z,46.30
2023-02-11T07:16:56.022Z,46.60
2023-02-11T07:19:26.264Z,47.00
2023-02-11T07:21:56.882Z,47.00
2023-02-11T07:24:27.259Z,47.20
2023-02-11T07:26:57.548Z,47.40
2023-02-11T07:29:27.740Z,47.50
2023-02-11T07:31:58.035Z,47.50
2023-02-11T07:34:28.346Z,47.40
2023-02-11T07:36:58.621Z,47.10
2023-02-11T07:39:32.091Z,47.40
2023-02-11T07:42:02.385Z,47.40
2023-02-11T07:44:34.896Z,47.40
2023-02-11T07:47:05.333Z,47.30
2023-02-11T07:49:35.664Z,47.50
2023-02-11T07:52:06.024Z,47.30
2023-02-11T07:54:36.609Z,46.60
2023-02-11T07:57:07.219Z,46.70
2023-02-11T07:59:37.600Z,46.20
2023-02-11T08:02:07.970Z,46.20
2023-02-11T08:04:38.421Z,46.40
2023-02-11T08:07:08.975Z,46.10
2023-02-11T08:09:39.359Z,45.30
2023-02-11T08:12:09.929Z,45.20
2023-02-11T08:14:40.702Z,45.00
2023-02-11T08:17:10.884Z,45.20
2023-02-11T08:19:41.941Z,45.20
2023-02-11T08:22:13.071Z,45.30
2023-02-11T08:24:43.338Z,45.80
2023-02-11T08:27:13.901Z,45.00
2023-02-11T08:29:44.532Z,45.00
2023-02-11T08:32:14.987Z,45.20
2023-02-11T08:34:45.660Z,45.10
2023-02-11T08:37:16.249Z,45.20
2023-02-11T08:39:49.023Z,45.00
2023-02-11T08:42:19.983Z,45.30
2023-02-11T08:44:50.260Z,45.40
2023-02-11T08:47:21.014Z,45.20
2023-02-11T08:49:51.695Z,45.30
2023-02-11T08:52:23.097Z,45.50
2023-02-11T08:54:53.406Z,45.70
2023-02-11T08:57:23.686Z,45.70
2023-02-11T08:59:54.057Z,45.70
2023-02-11T09:02:25.307Z,45.90
2023-02-11T09:04:55.648Z,46.00
2023-02-11T09:07:26.074Z,46.20
2023-02-11T09:09:56.611Z,46.10
2023-02-11T09:12:26.948Z,46.20
2023-02-11T09:14:57.126Z,46.20
2023-02-11T09:17:27.559Z,46.20
2023-02-11T09:19:58.339Z,46.30
2023-02-11T09:22:28.672Z,46.50
2023-02-11T09:24:59.060Z,46.60
2023-02-11T09:27:29.482Z,46.50
2023-02-11T09:29:59.684Z,46.60
2023-02-11T09:32:29.876Z,46.50
2023-02-11T09:35:00.197Z,46.70
2023-02-11T09:37:30.407Z,46.80
2023-02-11T09:40:00.893Z,46.70
2023-02-11T09:42:41.228Z,47.10
2023-02-11T09:45:24.480Z,47.40
2023-02-11T09:48:06.156Z,47.90
2023-02-11T09:50:44.964Z,47.80
2023-02-11T09:53:23.232Z,48.10
2023-02-11T09:56:01.214Z,47.60
2023-02-11T09:58:41.187Z,48.00
2023-02-11T10:01:26.228Z,48.10
2023-02-11T10:03:59.579Z,48.00
2023-02-11T10:06:41.735Z,47.80
2023-02-11T10:09:29.913Z,47.90
2023-02-11T10:12:36.204Z,48.00
2023-02-11T10:15:11.524Z,47.80
2023-02-11T10:18:03.089Z,48.10
2023-02-11T10:20:58.346Z,48.50
2023-02-11T10:23:34.047Z,48.60
2023-02-11T10:26:04.849Z,48.80
2023-02-11T10:28:41.192Z,49.10
2023-02-11T10:31:20.578Z,49.30
2023-02-11T10:34:07.006Z,50.30
2023-02-11T10:36:40.929Z,50.10
2023-02-11T10:39:21.941Z,50.10
2023-02-11T10:42:18.402Z,50.30
2023-02-11T10:45:05.178Z,50.50
2023-02-11T10:47:40.655Z,50.70
2023-02-11T10:50:32.268Z,50.90
2023-02-11T10:53:23.353Z,51.10
2023-02-11T10:55:56.883Z,51.20
2023-02-11T10:58:31.452Z,51.20
2023-02-11T11:01:08.021Z,51.40
2023-02-11T11:03:50.761Z,51.40
2023-02-11T11:06:33.204Z,51.50
2023-02-11T11:09:03.936Z,51.60
2023-02-11T11:11:34.218Z,51.50
2023-02-11T11:14:05.654Z,51.60
2023-02-11T11:16:37.829Z,51.70
2023-02-11T11:19:11.012Z,51.70
2023-02-11T11:21:51.772Z,51.80
2023-02-11T11:24:22.037Z,51.80
2023-02-11T11:26:54.253Z,51.80
2023-02-11T11:29:31.129Z,51.80
2023-02-11T11:32:07.896Z,51.80
2023-02-11T11:34:41.711Z,52.00
2023-02-11T11:37:29.449Z,51.90
2023-02-11T11:40:23.700Z,52.60
2023-02-11T11:43:07.983Z,52.00
2023-02-11T11:45:38.211Z,52.10
2023-02-11T11:48:26.614Z,52.20
2023-02-11T11:51:02.417Z,52.20
2023-02-11T11:53:43.929Z,52.30
2023-02-11T11:56:29.198Z,52.40
2023-02-11T11:59:02.533Z,52.40
2023-02-11T12:01:44.895Z,52.30
2023-02-11T12:04:45.158Z,52.50
2023-02-11T12:07:53.800Z,52.50
2023-02-11T12:10:48.335Z,52.60
2023-02-11T12:14:13.228Z,52.70
2023-02-11T12:16:59.256Z,52.80
2023-02-11T12:20:01.734Z,52.80
2023-02-11T12:23:10.954Z,52.90
2023-02-11T12:25:46.976Z,52.90
2023-02-11T12:28:33.767Z,53.00
2023-02-11T12:31:09.972Z,53.00
2023-02-11T12:33:47.732Z,53.00
2023-02-11T12:36:36.244Z,53.00
2023-02-11T12:39:06.391Z,53.10
2023-02-11T12:42:12.848Z,53.10
2023-02-11T12:45:15.574Z,53.20
2023-02-11T12:48:12.282Z,53.30
2023-02-11T12:51:07.368Z,53.30
2023-02-11T12:53:59.005Z,53.40
2023-02-11T12:56:40.445Z,53.40
2023-02-11T12:59:21.047Z,53.40
2023-02-11T13:01:53.754Z,53.50
2023-02-11T13:04:38.380Z,53.50
2023-02-11T13:07:27.862Z,53.60
2023-02-11T13:10:25.487Z,53.70
2023-02-11T13:13:16.480Z,53.70
2023-02-11T13:15:51.182Z,53.70
2023-02-11T13:18:53.496Z,53.80
2023-02-11T13:22:00.511Z,53.80
2023-02-11T13:24:45.926Z,53.80
2023-02-11T13:27:41.136Z,53.80
2023-02-11T13:30:29.727Z,53.90
2023-02-11T13:32:59.993Z,53.90
2023-02-11T13:35:31.733Z,54.00
2023-02-11T13:38:15.863Z,54.00
2023-02-11T13:40:46.785Z,54.00
2023-02-11T13:43:31.506Z,54.00
2023-02-11T13:46:14.605Z,54.00
2023-02-11T13:48:54.637Z,54.00
2023-02-11T13:51:44.376Z,54.00
2023-02-11T13:54:34.982Z,54.00
2023-02-11T13:57:18.959Z,54.00
2023-02-11T13:59:51.791Z,54.00
2023-02-11T14:02:43.014Z,54.20
2023-02-11T14:05:44.436Z,54.20
2023-02-11T14:08:32.400Z,54.30
2023-02-11T14:11:12.737Z,54.30
2023-02-11T14:13:52.047Z,55.00
2023-02-11T14:16:36.721Z,54.40
2023-02-11T14:19:08.038Z,54.40
2023-02-11T14:21:43.484Z,54.50
2023-02-11T14:24:14.632Z,54.50
2023-02-11T14:26:59.164Z,54.40
2023-02-11T14:29:47.728Z,54.50
2023-02-11T14:32:53.479Z,54.50
2023-02-11T14:35:42.149Z,54.60
2023-02-11T14:38:51.727Z,54.70
2023-02-11T14:41:41.370Z,54.60
2023-02-11T14:44:33.479Z,54.70
2023-02-11T14:47:03.947Z,54.60
2023-02-11T14:49:39.080Z,54.70
2023-02-11T14:52:31.430Z,54.70
2023-02-11T14:55:36.647Z,54.60
2023-02-11T14:58:15.718Z,54.70
2023-02-11T15:01:10.611Z,54.80
2023-02-11T15:03:43.383Z,54.80
2023-02-11T15:06:20.138Z,54.80
2023-02-11T15:08:58.177Z,54.90
2023-02-11T15:11:30.333Z,54.90
2023-02-11T15:14:14.232Z,54.90
2023-02-11T15:16:46.937Z,54.90
2023-02-11T15:19:33.018Z,55.00
2023-02-11T15:22:09.334Z,54.90
2023-02-11T15:24:41.574Z,55.00
2023-02-11T15:27:17.758Z,55.00
2023-02-11T15:29:53.425Z,55.00
2023-02-11T15:32:26.728Z,55.00
2023-02-11T15:34:59.031Z,55.00
2023-02-11T15:37:34.171Z,55.00
2023-02-11T15:40:25.446Z,54.90
2023-02-11T15:42:58.492Z,55.00
2023-02-11T15:45:47.902Z,55.00
2023-02-11T15:48:23.600Z,55.10
2023-02-11T15:51:08.630Z,55.10
2023-02-11T15:53:44.989Z,55.10
2023-02-11T15:56:21.614Z,55.10
2023-02-11T15:58:53.974Z,55.10
2023-02-11T16:01:36.054Z,55.10
2023-02-11T16:04:07.613Z,55.10
2023-02-11T16:06:49.157Z,55.20
2023-02-11T16:09:19.439Z,55.80
2023-02-11T16:11:49.626Z,55.20
2023-02-11T16:14:31.881Z,55.30
2023-02-11T16:17:16.566Z,55.30
2023-02-11T16:19:49.861Z,55.30
2023-02-11T16:22:31.875Z,55.30
2023-02-11T16:25:03.046Z,55.30
2023-02-11T16:27:43.220Z,55.40
2023-02-11T16:30:42.852Z,55.40
2023-02-11T16:33:14.595Z,55.40
2023-02-11T16:35:49.381Z,55.50
2023-02-11T16:38:26.189Z,55.50
2023-02-11T16:40:56.390Z,55.50
2023-02-11T16:43:26.778Z,55.60
2023-02-11T16:45:57.094Z,55.60
2023-02-11T16:48:27.417Z,55.60
2023-02-11T16:50:58.194Z,55.60
2023-02-11T16:53:28.591Z,55.60
2023-02-11T16:55:59.401Z,55.60
2023-02-11T16:58:29.636Z,55.70
2023-02-11T17:01:00.180Z,55.70
2023-02-11T17:03:31.076Z,55.70
2023-02-11T17:06:04.389Z,55.80
2023-02-11T17:08:35.441Z,55.80
2023-02-11T17:11:06.699Z,55.80
2023-02-11T17:13:38.130Z,55.70
2023-02-11T17:16:10.999Z,55.70
2023-02-11T17:18:41.331Z,55.80
2023-02-11T17:21:12.587Z,55.80
2023-02-11T17:23:42.921Z,55.80
2023-02-11T17:26:13.403Z,55.80
2023-02-11T17:28:43.753Z,55.80
2023-02-11T17:31:14.122Z,55.70
2023-02-11T17:33:44.517Z,55.80
2023-02-11T17:36:14.872Z,55.70
2023-02-11T17:38:45.074Z,55.80
2023-02-11T17:41:15.389Z,55.80
2023-02-11T17:43:45.743Z,55.80
2023-02-11T17:46:16.880Z,55.90
2023-02-11T17:48:47.411Z,55.90
2023-02-11T17:51:32.643Z,55.80
2023-02-11T17:54:05.850Z,55.60
2023-02-11T17:56:38.149Z,55.70
2023-02-11T17:59:10.464Z,55.80
2023-02-11T18:01:42.148Z,55.80
2023-02-11T18:04:17.336Z,55.80
2023-02-11T18:06:48.866Z,55.80
2023-02-11T18:09:19.155Z,55.70
2023-02-11T18:11:54.424Z,55.80
2023-02-11T18:14:25.361Z,55.80
2023-02-11T18:16:55.903Z,55.90
2023-02-11T18:19:26.245Z,55.90
2023-02-11T18:21:57.617Z,55.90
2023-02-11T18:24:29.208Z,56.00
2023-02-11T18:26:59.590Z,55.90
2023-02-11T18:29:29.918Z,55.90
2023-02-11T18:32:00.535Z,55.90
2023-02-11T18:34:30.909Z,56.10
2023-02-11T18:37:01.186Z,55.90
2023-02-11T18:39:31.840Z,56.00
2023-02-11T18:42:02.199Z,56.00
2023-02-11T18:44:32.421Z,56.10
2023-02-11T18:47:02.960Z,56.20
2023-02-11T18:49:34.644Z,56.30
2023-02-11T18:52:05.661Z,56.30
2023-02-11T18:54:35.851Z,56.20
2023-02-11T18:57:06.196Z,56.20
2023-02-11T18:59:36.405Z,56.20
2023-02-11T19:02:06.637Z,56.20
2023-02-11T19:04:39.020Z,56.20
2023-02-11T19:07:09.278Z,56.20
2023-02-11T19:09:40.140Z,56.20
2023-02-11T19:12:10.980Z,56.20
2023-02-11T19:14:41.210Z,56.20
2023-02-11T19:17:14.032Z,56.30
2023-02-11T19:19:45.596Z,56.20
2023-02-11T19:22:15.989Z,56.30
2023-02-11T19:24:47.965Z,56.20
2023-02-11T19:27:18.348Z,56.20
2023-02-11T19:29:49.002Z,56.30
2023-02-11T19:32:19.884Z,56.20
2023-02-11T19:34:50.362Z,56.20
2023-02-11T19:37:22.519Z,56.30
2023-02-11T19:39:53.411Z,56.30
2023-02-11T19:42:26.524Z,56.30
2023-02-11T19:44:59.060Z,56.20
2023-02-11T19:47:29.383Z,56.30
2023-02-11T19:49:59.808Z,56.30
2023-02-11T19:52:30.129Z,56.40
2023-02-11T19:55:01.879Z,56.50
2023-02-11T19:57:32.162Z,56.40
2023-02-11T20:00:03.086Z,56.40
2023-02-11T20:02:33.343Z,56.40
2023-02-11T20:05:05.603Z,56.40
2023-02-11T20:07:35.827Z,56.50
2023-02-11T20:10:06.202Z,56.50
2023-02-11T20:12:36.509Z,56.50
2023-02-11T20:15:07.476Z,56.50
2023-02-11T20:17:37.748Z,56.50
2023-02-11T20:20:08.612Z,56.50
2023-02-11T20:22:38.914Z,56.50
2023-02-11T20:25:09.918Z,56.60
2023-02-11T20:27:40.243Z,56.60
2023-02-11T20:30:11.324Z,56.60
2023-02-11T20:32:41.574Z,56.60
2023-02-11T20:35:12.649Z,56.70
2023-02-11T20:37:44.166Z,56.70
2023-02-11T20:40:15.044Z,56.70
2023-02-11T20:42:45.348Z,57.40
2023-02-11T20:45:15.569Z,56.70
2023-02-11T20:47:45.828Z,56.80
2023-02-11T20:50:16.168Z,56.80
2023-02-11T20:52:46.458Z,57.40
2023-02-11T20:55:17.056Z,56.80
2023-02-11T20:57:47.248Z,57.50
2023-02-11T21:00:17.850Z,56.90
2023-02-11T21:02:52.825Z,56.90
2023-02-11T21:05:23.338Z,56.90
2023-02-11T21:07:54.877Z,57.00
2023-02-11T21:10:25.372Z,57.00
2023-02-11T21:12:55.772Z,57.10
2023-02-11T21:15:26.957Z,57.10
2023-02-11T21:17:57.249Z,57.10
2023-02-11T21:20:27.629Z,57.20
2023-02-11T21:22:57.936Z,57.20
2023-02-11T21:25:28.832Z,57.20
2023-02-11T21:27:59.184Z,57.30
2023-02-11T21:30:29.414Z,57.30
2023-02-11T21:33:01.474Z,57.30
2023-02-11T21:35:34.154Z,57.30
2023-02-11T21:38:04.779Z,57.30
2023-02-11T21:40:35.407Z,56.50
2023-02-11T21:43:05.704Z,55.80
2023-02-11T21:45:36.046Z,54.20
2023-02-11T21:48:06.313Z,53.60
2023-02-11T21:50:36.588Z,54.00
2023-02-11T21:53:07.125Z,54.40
2023-02-11T21:55:39.343Z,54.40
2023-02-11T21:58:10.061Z,54.70
2023-02-11T22:00:40.663Z,54.30
2023-02-11T22:03:11.034Z,54.30
2023-02-11T22:05:43.587Z,54.30
2023-02-11T22:08:20.120Z,54.50
2023-02-11T22:10:50.482Z,54.20
2023-02-11T22:13:20.720Z,54.30
2023-02-11T22:16:00.941Z,54.00
2023-02-11T22:18:34.879Z,54.20
2023-02-11T22:21:07.730Z,54.20
2023-02-11T22:23:39.190Z,54.10
2023-02-11T22:26:12.548Z,54.10
2023-02-11T22:28:42.831Z,54.20
2023-02-11T22:31:19.241Z,54.30
2023-02-11T22:33:50.183Z,53.80
2023-02-11T22:36:41.880Z,54.20
2023-02-11T22:39:16.174Z,54.20
2023-02-11T22:41:48.352Z,54.10
2023-02-11T22:44:19.376Z,54.30
2023-02-11T22:46:49.644Z,54.40
2023-02-11T22:49:21.864Z,54.50
2023-02-11T22:51:52.047Z,54.90
2023-02-11T22:54:22.523Z,55.20
2023-02-11T22:56:53.733Z,55.40
2023-02-11T22:59:24.271Z,55.60
2023-02-11T23:01:54.648Z,55.70
2023-02-11T23:04:24.972Z,55.80
2023-02-11T23:06:55.209Z,55.90
2023-02-11T23:09:25.476Z,56.00
2023-02-11T23:11:56.100Z,56.00
2023-02-11T23:14:26.397Z,56.10
2023-02-11T23:16:56.712Z,56.10
2023-02-11T23:19:27.075Z,56.20
2023-02-11T23:21:57.238Z,56.10
2023-02-11T23:24:27.561Z,56.20
2023-02-11T23:26:58.065Z,56.40
2023-02-11T23:29:28.346Z,56.50
2023-02-11T23:31:59.029Z,56.50
2023-02-11T23:34:30.152Z,57.20
2023-02-11T23:37:01.302Z,58.00
2023-02-11T23:39:31.900Z,58.10
2023-02-11T23:42:02.399Z,58.10
2023-02-11T23:44:32.878Z,58.10
2023-02-11T23:47:03.290Z,58.10
2023-02-11T23:49:33.792Z,58.10
2023-02-11T23:52:04.142Z,58.00
2023-02-11T23:54:34.521Z,58.10
2023-02-11T23:57:04.982Z,58.00
2023-02-11T23:59:35.264Z,57.80
